sensor_id;sensor_type;location;lat;lon;timestamp;temperature;humidity
75170;SHT31;63749;49.186;9.222;2023-11-22T00:01:05;6.22;88.08
75170;SHT31;63749;49.186;9.222;2023-11-22T00:03:31;6.16;87.66
75170;SHT31;63749;49.186;9.222;2023-11-22T00:05:57;6.11;87.69
75170;SHT31;63749;49.186;9.222;2023-11-22T00:08:23;6.09;86.73
75170;SHT31;63749;49.186;9.222;2023-11-22T00:10:49;6.06;86.54
75170;SHT31;63749;49.186;9.222;2023-11-22T00:13:14;5.99;86.25
75170;SHT31;63749;49.186;9.222;2023-11-22T00:15:39;6.04;86.50
75170;SHT31;63749;49.186;9.222;2023-11-22T00:18:05;5.95;86.15
75170;SHT31;63749;49.186;9.222;2023-11-22T00:20:30;5.95;85.95
75170;SHT31;63749;49.186;9.222;2023-11-22T00:22:56;5.93;86.65
75170;SHT31;63749;49.186;9.222;2023-11-22T00:25:23;5.93;86.47
75170;SHT31;63749;49.186;9.222;2023-11-22T00:27:48;5.94;86.29
75170;SHT31;63749;49.186;9.222;2023-11-22T00:30:14;5.88;85.62
75170;SHT31;63749;49.186;9.222;2023-11-22T00:32:40;5.88;86.40
75170;SHT31;63749;49.186;9.222;2023-11-22T00:35:08;5.87;84.52
75170;SHT31;63749;49.186;9.222;2023-11-22T00:37:34;5.85;84.52
75170;SHT31;63749;49.186;9.222;2023-11-22T00:40:02;5.84;84.03
75170;SHT31;63749;49.186;9.222;2023-11-22T00:42:38;5.79;82.89
75170;SHT31;63749;49.186;9.222;2023-11-22T00:45:06;5.75;82.45
75170;SHT31;63749;49.186;9.222;2023-11-22T00:47:34;5.77;81.47
75170;SHT31;63749;49.186;9.222;2023-11-22T00:50:00;5.71;81.39
75170;SHT31;63749;49.186;9.222;2023-11-22T00:52:28;5.68;81.72
75170;SHT31;63749;49.186;9.222;2023-11-22T00:54:53;5.70;81.88
75170;SHT31;63749;49.186;9.222;2023-11-22T00:57:19;5.67;82.44
75170;SHT31;63749;49.186;9.222;2023-11-22T00:59:44;5.67;82.83
75170;SHT31;63749;49.186;9.222;2023-11-22T01:02:10;5.65;82.80
75170;SHT31;63749;49.186;9.222;2023-11-22T01:04:35;5.58;83.53
75170;SHT31;63749;49.186;9.222;2023-11-22T01:07:03;5.57;84.09
75170;SHT31;63749;49.186;9.222;2023-11-22T01:09:30;5.65;82.08
75170;SHT31;63749;49.186;9.222;2023-11-22T01:11:57;5.57;81.73
75170;SHT31;63749;49.186;9.222;2023-11-22T01:14:22;5.60;82.09
75170;SHT31;63749;49.186;9.222;2023-11-22T01:16:47;5.56;82.33
75170;SHT31;63749;49.186;9.222;2023-11-22T01:19:13;5.43;81.54
75170;SHT31;63749;49.186;9.222;2023-11-22T01:21:38;5.48;81.48
75170;SHT31;63749;49.186;9.222;2023-11-22T01:24:04;5.42;82.50
75170;SHT31;63749;49.186;9.222;2023-11-22T01:26:29;5.39;82.22
75170;SHT31;63749;49.186;9.222;2023-11-22T01:28:55;5.36;82.36
75170;SHT31;63749;49.186;9.222;2023-11-22T01:31:21;5.33;82.18
75170;SHT31;63749;49.186;9.222;2023-11-22T01:33:48;5.30;82.57
75170;SHT31;63749;49.186;9.222;2023-11-22T01:36:13;5.27;83.41
75170;SHT31;63749;49.186;9.222;2023-11-22T01:38:40;5.27;82.13
75170;SHT31;63749;49.186;9.222;2023-11-22T01:41:09;5.25;82.02
75170;SHT31;63749;49.186;9.222;2023-11-22T01:43:38;5.30;82.42
75170;SHT31;63749;49.186;9.222;2023-11-22T01:46:05;5.27;82.51
75170;SHT31;63749;49.186;9.222;2023-11-22T01:48:31;5.22;82.86
75170;SHT31;63749;49.186;9.222;2023-11-22T01:50:57;5.16;82.51
75170;SHT31;63749;49.186;9.222;2023-11-22T01:53:23;5.18;82.37
75170;SHT31;63749;49.186;9.222;2023-11-22T01:55:49;5.12;82.77
75170;SHT31;63749;49.186;9.222;2023-11-22T01:58:15;5.20;82.83
75170;SHT31;63749;49.186;9.222;2023-11-22T02:00:51;5.22;83.09
75170;SHT31;63749;49.186;9.222;2023-11-22T02:03:18;5.18;82.94
75170;SHT31;63749;49.186;9.222;2023-11-22T02:05:44;5.18;83.22
75170;SHT31;63749;49.186;9.222;2023-11-22T02:08:10;5.09;83.94
75170;SHT31;63749;49.186;9.222;2023-11-22T02:10:35;4.96;83.67
75170;SHT31;63749;49.186;9.222;2023-11-22T02:13:02;4.91;83.82
75170;SHT31;63749;49.186;9.222;2023-11-22T02:15:30;4.86;84.37
75170;SHT31;63749;49.186;9.222;2023-11-22T02:17:56;4.76;84.28
75170;SHT31;63749;49.186;9.222;2023-11-22T02:20:22;4.61;85.04
75170;SHT31;63749;49.186;9.222;2023-11-22T02:22:48;4.51;85.42
75170;SHT31;63749;49.186;9.222;2023-11-22T02:25:13;4.41;85.70
75170;SHT31;63749;49.186;9.222;2023-11-22T02:27:40;4.34;85.67
75170;SHT31;63749;49.186;9.222;2023-11-22T02:30:06;4.24;85.54
75170;SHT31;63749;49.186;9.222;2023-11-22T02:32:32;4.20;85.69
75170;SHT31;63749;49.186;9.222;2023-11-22T02:34:58;4.14;85.71
75170;SHT31;63749;49.186;9.222;2023-11-22T02:37:24;4.07;86.04
75170;SHT31;63749;49.186;9.222;2023-11-22T02:40:06;4.02;85.29
75170;SHT31;63749;49.186;9.222;2023-11-22T02:42:35;4.02;85.00
75170;SHT31;63749;49.186;9.222;2023-11-22T02:45:00;3.97;85.36
75170;SHT31;63749;49.186;9.222;2023-11-22T02:47:25;3.90;85.58
75170;SHT31;63749;49.186;9.222;2023-11-22T02:49:51;3.78;85.98
75170;SHT31;63749;49.186;9.222;2023-11-22T02:52:17;3.79;85.57
75170;SHT31;63749;49.186;9.222;2023-11-22T02:54:45;3.83;85.17
75170;SHT31;63749;49.186;9.222;2023-11-22T02:57:11;3.95;84.70
75170;SHT31;63749;49.186;9.222;2023-11-22T02:59:36;3.99;84.82
75170;SHT31;63749;49.186;9.222;2023-11-22T03:02:02;4.05;84.36
75170;SHT31;63749;49.186;9.222;2023-11-22T03:04:28;4.11;84.04
75170;SHT31;63749;49.186;9.222;2023-11-22T03:06:53;4.14;84.70
75170;SHT31;63749;49.186;9.222;2023-11-22T03:09:19;4.10;84.73
75170;SHT31;63749;49.186;9.222;2023-11-22T03:11:44;4.17;84.38
75170;SHT31;63749;49.186;9.222;2023-11-22T03:14:09;4.18;84.72
75170;SHT31;63749;49.186;9.222;2023-11-22T03:16:38;4.23;84.69
75170;SHT31;63749;49.186;9.222;2023-11-22T03:19:04;4.30;84.28
75170;SHT31;63749;49.186;9.222;2023-11-22T03:21:29;4.32;84.36
75170;SHT31;63749;49.186;9.222;2023-11-22T03:23:54;4.24;83.58
75170;SHT31;63749;49.186;9.222;2023-11-22T03:26:20;4.30;83.83
75170;SHT31;63749;49.186;9.222;2023-11-22T03:28:45;4.30;83.93
75170;SHT31;63749;49.186;9.222;2023-11-22T03:31:10;4.27;83.76
75170;SHT31;63749;49.186;9.222;2023-11-22T03:33:36;4.29;84.50
75170;SHT31;63749;49.186;9.222;2023-11-22T03:36:03;4.32;83.96
75170;SHT31;63749;49.186;9.222;2023-11-22T03:38:30;4.27;83.48
75170;SHT31;63749;49.186;9.222;2023-11-22T03:40:55;4.27;83.67
75170;SHT31;63749;49.186;9.222;2023-11-22T03:43:21;4.30;83.35
75170;SHT31;63749;49.186;9.222;2023-11-22T03:45:46;4.30;83.74
75170;SHT31;63749;49.186;9.222;2023-11-22T03:48:11;4.34;83.93
75170;SHT31;63749;49.186;9.222;2023-11-22T03:50:37;4.30;82.91
75170;SHT31;63749;49.186;9.222;2023-11-22T03:53:02;4.34;82.46
75170;SHT31;63749;49.186;9.222;2023-11-22T03:55:28;4.29;82.89
75170;SHT31;63749;49.186;9.222;2023-11-22T03:57:53;4.30;82.97
75170;SHT31;63749;49.186;9.222;2023-11-22T04:00:18;4.30;83.05
75170;SHT31;63749;49.186;9.222;2023-11-22T04:02:44;4.26;81.70
75170;SHT31;63749;49.186;9.222;2023-11-22T04:05:10;4.30;81.99
75170;SHT31;63749;49.186;9.222;2023-11-22T04:07:36;4.23;82.27
75170;SHT31;63749;49.186;9.222;2023-11-22T04:10:03;4.26;82.24
75170;SHT31;63749;49.186;9.222;2023-11-22T04:12:29;4.23;82.21
75170;SHT31;63749;49.186;9.222;2023-11-22T04:14:54;4.23;82.57
75170;SHT31;63749;49.186;9.222;2023-11-22T04:17:20;4.23;82.79
75170;SHT31;63749;49.186;9.222;2023-11-22T04:19:47;4.24;82.25
75170;SHT31;63749;49.186;9.222;2023-11-22T04:22:12;4.30;82.01
75170;SHT31;63749;49.186;9.222;2023-11-22T04:24:37;4.24;82.33
75170;SHT31;63749;49.186;9.222;2023-11-22T04:27:04;4.24;82.57
75170;SHT31;63749;49.186;9.222;2023-11-22T04:29:29;4.30;82.50
75170;SHT31;63749;49.186;9.222;2023-11-22T04:31:55;4.26;82.33
75170;SHT31;63749;49.186;9.222;2023-11-22T04:34:20;4.23;82.38
75170;SHT31;63749;49.186;9.222;2023-11-22T04:36:45;4.24;81.78
75170;SHT31;63749;49.186;9.222;2023-11-22T04:39:11;4.24;82.12
75170;SHT31;63749;49.186;9.222;2023-11-22T04:41:38;4.29;82.23
75170;SHT31;63749;49.186;9.222;2023-11-22T04:44:04;4.34;81.64
75170;SHT31;63749;49.186;9.222;2023-11-22T04:46:29;4.33;80.92
75170;SHT31;63749;49.186;9.222;2023-11-22T04:48:55;4.32;81.53
75170;SHT31;63749;49.186;9.222;2023-11-22T04:51:21;4.29;80.99
75170;SHT31;63749;49.186;9.222;2023-11-22T04:53:46;4.32;80.99
75170;SHT31;63749;49.186;9.222;2023-11-22T04:56:11;4.36;81.24
75170;SHT31;63749;49.186;9.222;2023-11-22T04:58:37;4.38;80.90
75170;SHT31;63749;49.186;9.222;2023-11-22T05:01:02;4.38;80.72
75170;SHT31;63749;49.186;9.222;2023-11-22T05:03:27;4.37;80.08
75170;SHT31;63749;49.186;9.222;2023-11-22T05:05:53;4.41;79.20
75170;SHT31;63749;49.186;9.222;2023-11-22T05:08:18;4.38;79.10
75170;SHT31;63749;49.186;9.222;2023-11-22T05:10:44;4.32;78.15
75170;SHT31;63749;49.186;9.222;2023-11-22T05:13:09;4.32;78.50
75170;SHT31;63749;49.186;9.222;2023-11-22T05:15:35;4.30;76.97
75170;SHT31;63749;49.186;9.222;2023-11-22T05:18:00;4.24;77.25
75170;SHT31;63749;49.186;9.222;2023-11-22T05:20:25;4.27;77.53
75170;SHT31;63749;49.186;9.222;2023-11-22T05:22:51;4.20;76.44
75170;SHT31;63749;49.186;9.222;2023-11-22T05:25:16;4.18;76.26
75170;SHT31;63749;49.186;9.222;2023-11-22T05:27:42;4.13;76.69
75170;SHT31;63749;49.186;9.222;2023-11-22T05:30:08;4.05;76.19
75170;SHT31;63749;49.186;9.222;2023-11-22T05:32:35;3.96;75.46
75170;SHT31;63749;49.186;9.222;2023-11-22T05:35:01;3.85;75.33
75170;SHT31;63749;49.186;9.222;2023-11-22T05:37:26;3.82;75.06
75170;SHT31;63749;49.186;9.222;2023-11-22T05:39:51;3.79;75.27
75170;SHT31;63749;49.186;9.222;2023-11-22T05:42:17;3.79;75.58
75170;SHT31;63749;49.186;9.222;2023-11-22T05:44:44;3.79;75.16
75170;SHT31;63749;49.186;9.222;2023-11-22T05:47:09;3.69;75.70
75170;SHT31;63749;49.186;9.222;2023-11-22T05:49:35;3.68;75.49
75170;SHT31;63749;49.186;9.222;2023-11-22T05:52:01;3.65;75.40
75170;SHT31;63749;49.186;9.222;2023-11-22T05:54:27;3.64;75.78
75170;SHT31;63749;49.186;9.222;2023-11-22T05:56:52;3.58;75.53
75170;SHT31;63749;49.186;9.222;2023-11-22T05:59:18;3.62;75.77
75170;SHT31;63749;49.186;9.222;2023-11-22T06:01:44;3.59;76.04
75170;SHT31;63749;49.186;9.222;2023-11-22T06:04:09;3.48;75.86
75170;SHT31;63749;49.186;9.222;2023-11-22T06:06:36;3.50;75.08
75170;SHT31;63749;49.186;9.222;2023-11-22T06:09:02;3.45;75.81
75170;SHT31;63749;49.186;9.222;2023-11-22T06:11:27;3.41;75.30
75170;SHT31;63749;49.186;9.222;2023-11-22T06:13:53;3.44;75.72
75170;SHT31;63749;49.186;9.222;2023-11-22T06:16:18;3.34;75.27
75170;SHT31;63749;49.186;9.222;2023-11-22T06:18:43;3.30;74.71
75170;SHT31;63749;49.186;9.222;2023-11-22T06:21:09;3.28;75.24
75170;SHT31;63749;49.186;9.222;2023-11-22T06:23:35;3.21;75.94
75170;SHT31;63749;49.186;9.222;2023-11-22T06:26:02;3.24;75.20
75170;SHT31;63749;49.186;9.222;2023-11-22T06:28:27;3.30;75.60
75170;SHT31;63749;49.186;9.222;2023-11-22T06:30:54;3.35;74.59
75170;SHT31;63749;49.186;9.222;2023-11-22T06:33:19;3.31;74.97
75170;SHT31;63749;49.186;9.222;2023-11-22T06:35:45;3.37;75.23
75170;SHT31;63749;49.186;9.222;2023-11-22T06:38:10;3.28;74.18
75170;SHT31;63749;49.186;9.222;2023-11-22T06:40:35;3.26;74.59
75170;SHT31;63749;49.186;9.222;2023-11-22T06:43:01;3.30;75.47
75170;SHT31;63749;49.186;9.222;2023-11-22T06:45:29;3.27;75.25
75170;SHT31;63749;49.186;9.222;2023-11-22T06:47:57;3.20;75.36
75170;SHT31;63749;49.186;9.222;2023-11-22T06:50:23;3.17;75.60
75170;SHT31;63749;49.186;9.222;2023-11-22T06:52:49;3.11;75.27
75170;SHT31;63749;49.186;9.222;2023-11-22T06:55:15;3.07;75.06
75170;SHT31;63749;49.186;9.222;2023-11-22T06:57:40;3.11;75.13
75170;SHT31;63749;49.186;9.222;2023-11-22T07:00:06;3.08;75.78
75170;SHT31;63749;49.186;9.222;2023-11-22T07:02:34;3.13;75.70
75170;SHT31;63749;49.186;9.222;2023-11-22T07:05:03;3.08;73.80
75170;SHT31;63749;49.186;9.222;2023-11-22T07:07:32;3.04;74.47
75170;SHT31;63749;49.186;9.222;2023-11-22T07:09:58;2.92;73.98
75170;SHT31;63749;49.186;9.222;2023-11-22T07:12:24;3.03;75.03
75170;SHT31;63749;49.186;9.222;2023-11-22T07:14:49;2.99;74.56
75170;SHT31;63749;49.186;9.222;2023-11-22T07:17:15;2.97;74.93
75170;SHT31;63749;49.186;9.222;2023-11-22T07:19:40;2.89;75.10
75170;SHT31;63749;49.186;9.222;2023-11-22T07:22:14;2.90;74.98
75170;SHT31;63749;49.186;9.222;2023-11-22T07:24:47;2.95;75.70
75170;SHT31;63749;49.186;9.222;2023-11-22T07:27:25;2.93;75.64
75170;SHT31;63749;49.186;9.222;2023-11-22T07:29:51;2.97;75.49
75170;SHT31;63749;49.186;9.222;2023-11-22T07:32:17;3.03;75.90
75170;SHT31;63749;49.186;9.222;2023-11-22T07:34:45;3.04;75.64
75170;SHT31;63749;49.186;9.222;2023-11-22T07:37:10;3.08;76.80
75170;SHT31;63749;49.186;9.222;2023-11-22T07:39:37;3.07;75.92
75170;SHT31;63749;49.186;9.222;2023-11-22T07:42:05;3.06;76.00
75170;SHT31;63749;49.186;9.222;2023-11-22T07:44:34;2.99;76.28
75170;SHT31;63749;49.186;9.222;2023-11-22T07:47:01;3.03;76.67
75170;SHT31;63749;49.186;9.222;2023-11-22T07:49:26;2.96;75.75
75170;SHT31;63749;49.186;9.222;2023-11-22T07:51:53;3.01;76.02
75170;SHT31;63749;49.186;9.222;2023-11-22T07:54:19;2.83;75.59
75170;SHT31;63749;49.186;9.222;2023-11-22T07:56:47;2.99;75.76
75170;SHT31;63749;49.186;9.222;2023-11-22T07:59:12;3.10;75.80
75170;SHT31;63749;49.186;9.222;2023-11-22T08:01:38;3.11;75.15
75170;SHT31;63749;49.186;9.222;2023-11-22T08:04:04;3.08;76.04
75170;SHT31;63749;49.186;9.222;2023-11-22T08:06:31;3.21;74.68
75170;SHT31;63749;49.186;9.222;2023-11-22T08:08:57;3.10;76.38
75170;SHT31;63749;49.186;9.222;2023-11-22T08:11:26;3.24;74.87
75170;SHT31;63749;49.186;9.222;2023-11-22T08:13:53;3.11;74.93
75170;SHT31;63749;49.186;9.222;2023-11-22T08:16:20;3.04;75.97
75170;SHT31;63749;49.186;9.222;2023-11-22T08:18:45;3.08;75.52
75170;SHT31;63749;49.186;9.222;2023-11-22T08:21:13;2.93;75.35
75170;SHT31;63749;49.186;9.222;2023-11-22T08:23:38;3.03;76.72
75170;SHT31;63749;49.186;9.222;2023-11-22T08:26:04;3.16;75.83
75170;SHT31;63749;49.186;9.222;2023-11-22T08:28:30;3.13;74.20
75170;SHT31;63749;49.186;9.222;2023-11-22T08:30:56;3.13;74.35
75170;SHT31;63749;49.186;9.222;2023-11-22T08:33:21;3.21;74.42
75170;SHT31;63749;49.186;9.222;2023-11-22T08:35:47;3.24;74.61
75170;SHT31;63749;49.186;9.222;2023-11-22T08:38:16;3.32;74.44
75170;SHT31;63749;49.186;9.222;2023-11-22T08:40:42;3.28;73.15
75170;SHT31;63749;49.186;9.222;2023-11-22T08:43:07;3.24;73.43
75170;SHT31;63749;49.186;9.222;2023-11-22T08:45:32;3.38;74.01
75170;SHT31;63749;49.186;9.222;2023-11-22T08:48:00;3.50;73.29
75170;SHT31;63749;49.186;9.222;2023-11-22T08:50:25;3.61;72.99
75170;SHT31;63749;49.186;9.222;2023-11-22T08:52:50;3.62;72.81
75170;SHT31;63749;49.186;9.222;2023-11-22T08:55:21;3.71;73.13
75170;SHT31;63749;49.186;9.222;2023-11-22T08:57:48;3.59;72.82
75170;SHT31;63749;49.186;9.222;2023-11-22T09:00:13;3.75;73.39
75170;SHT31;63749;49.186;9.222;2023-11-22T09:02:40;3.79;71.92
75170;SHT31;63749;49.186;9.222;2023-11-22T09:05:06;3.76;72.17
75170;SHT31;63749;49.186;9.222;2023-11-22T09:07:34;3.95;73.16
75170;SHT31;63749;49.186;9.222;2023-11-22T09:10:02;3.72;72.07
75170;SHT31;63749;49.186;9.222;2023-11-22T09:12:34;3.89;72.20
75170;SHT31;63749;49.186;9.222;2023-11-22T09:15:00;3.86;72.10
75170;SHT31;63749;49.186;9.222;2023-11-22T09:17:25;3.85;71.01
75170;SHT31;63749;49.186;9.222;2023-11-22T09:19:50;3.95;70.88
75170;SHT31;63749;49.186;9.222;2023-11-22T09:22:16;4.06;71.22
75170;SHT31;63749;49.186;9.222;2023-11-22T09:24:43;4.16;70.42
75170;SHT31;63749;49.186;9.222;2023-11-22T09:27:10;4.10;71.40
75170;SHT31;63749;49.186;9.222;2023-11-22T09:29:40;4.23;71.69
75170;SHT31;63749;49.186;9.222;2023-11-22T09:32:05;4.43;71.01
75170;SHT31;63749;49.186;9.222;2023-11-22T09:34:31;4.47;71.35
75170;SHT31;63749;49.186;9.222;2023-11-22T09:36:57;4.40;70.31
75170;SHT31;63749;49.186;9.222;2023-11-22T09:39:22;4.55;70.39
75170;SHT31;63749;49.186;9.222;2023-11-22T09:41:50;4.67;70.43
75170;SHT31;63749;49.186;9.222;2023-11-22T09:44:17;4.67;69.57
75170;SHT31;63749;49.186;9.222;2023-11-22T09:46:42;4.57;69.32
75170;SHT31;63749;49.186;9.222;2023-11-22T09:49:10;4.40;69.63
75170;SHT31;63749;49.186;9.222;2023-11-22T09:51:43;4.53;70.43
75170;SHT31;63749;49.186;9.222;2023-11-22T09:54:09;4.64;70.14
75170;SHT31;63749;49.186;9.222;2023-11-22T09:56:39;4.81;69.78
75170;SHT31;63749;49.186;9.222;2023-11-22T09:59:06;4.58;68.69
75170;SHT31;63749;49.186;9.222;2023-11-22T10:01:33;4.40;69.81
75170;SHT31;63749;49.186;9.222;2023-11-22T10:04:04;4.61;69.67
75170;SHT31;63749;49.186;9.222;2023-11-22T10:06:31;4.72;69.44
75170;SHT31;63749;49.186;9.222;2023-11-22T10:09:00;4.61;69.07
75170;SHT31;63749;49.186;9.222;2023-11-22T10:11:26;4.68;69.82
75170;SHT31;63749;49.186;9.222;2023-11-22T10:13:51;4.62;69.93
75170;SHT31;63749;49.186;9.222;2023-11-22T10:16:18;4.75;68.95
75170;SHT31;63749;49.186;9.222;2023-11-22T10:18:46;4.82;69.59
75170;SHT31;63749;49.186;9.222;2023-11-22T10:21:22;4.79;69.96
75170;SHT31;63749;49.186;9.222;2023-11-22T10:23:50;4.65;69.52
75170;SHT31;63749;49.186;9.222;2023-11-22T10:26:17;4.91;69.13
75170;SHT31;63749;49.186;9.222;2023-11-22T10:28:43;5.00;69.15
75170;SHT31;63749;49.186;9.222;2023-11-22T10:31:11;5.09;68.27
75170;SHT31;63749;49.186;9.222;2023-11-22T10:33:43;4.99;68.99
75170;SHT31;63749;49.186;9.222;2023-11-22T10:36:09;5.05;69.07
75170;SHT31;63749;49.186;9.222;2023-11-22T10:38:35;5.11;68.32
75170;SHT31;63749;49.186;9.222;2023-11-22T10:41:04;4.96;68.12
75170;SHT31;63749;49.186;9.222;2023-11-22T10:43:30;4.69;68.70
75170;SHT31;63749;49.186;9.222;2023-11-22T10:45:59;4.93;69.30
75170;SHT31;63749;49.186;9.222;2023-11-22T10:48:25;4.92;68.63
75170;SHT31;63749;49.186;9.222;2023-11-22T10:50:53;4.99;68.85
75170;SHT31;63749;49.186;9.222;2023-11-22T10:53:21;4.95;68.87
75170;SHT31;63749;49.186;9.222;2023-11-22T10:55:55;4.72;69.03
75170;SHT31;63749;49.186;9.222;2023-11-22T10:58:23;4.72;69.68
75170;SHT31;63749;49.186;9.222;2023-11-22T11:00:50;5.04;70.23
75170;SHT31;63749;49.186;9.222;2023-11-22T11:03:20;4.98;69.45
75170;SHT31;63749;49.186;9.222;2023-11-22T11:06:08;5.05;69.98
75170;SHT31;63749;49.186;9.222;2023-11-22T11:08:37;5.15;69.57
75170;SHT31;63749;49.186;9.222;2023-11-22T11:11:04;5.19;68.69
75170;SHT31;63749;49.186;9.222;2023-11-22T11:13:29;5.00;69.02
75170;SHT31;63749;49.186;9.222;2023-11-22T11:15:55;4.86;68.45
75170;SHT31;63749;49.186;9.222;2023-11-22T11:18:22;4.82;69.05
75170;SHT31;63749;49.186;9.222;2023-11-22T11:20:51;5.16;69.53
75170;SHT31;63749;49.186;9.222;2023-11-22T11:23:19;5.25;68.63
75170;SHT31;63749;49.186;9.222;2023-11-22T11:25:51;5.11;68.32
75170;SHT31;63749;49.186;9.222;2023-11-22T11:28:17;5.15;68.27
75170;SHT31;63749;49.186;9.222;2023-11-22T11:30:46;5.16;68.94
75170;SHT31;63749;49.186;9.222;2023-11-22T11:33:14;5.22;68.39
75170;SHT31;63749;49.186;9.222;2023-11-22T11:38:14;5.32;67.85
75170;SHT31;63749;49.186;9.222;2023-11-22T11:40:42;5.22;69.70
75170;SHT31;63749;49.186;9.222;2023-11-22T11:43:09;5.23;69.72
75170;SHT31;63749;49.186;9.222;2023-11-22T11:45:44;5.12;69.15
75170;SHT31;63749;49.186;9.222;2023-11-22T11:48:16;5.29;69.06
75170;SHT31;63749;49.186;9.222;2023-11-22T11:50:42;5.25;69.07
75170;SHT31;63749;49.186;9.222;2023-11-22T11:53:09;5.44;68.95
75170;SHT31;63749;49.186;9.222;2023-11-22T11:55:36;5.43;68.80
75170;SHT31;63749;49.186;9.222;2023-11-22T11:58:06;5.44;68.74
75170;SHT31;63749;49.186;9.222;2023-11-22T12:00:37;5.60;68.86
75170;SHT31;63749;49.186;9.222;2023-11-22T12:03:06;5.56;69.41
75170;SHT31;63749;49.186;9.222;2023-11-22T12:05:32;5.51;68.16
75170;SHT31;63749;49.186;9.222;2023-11-22T12:07:58;5.36;69.67
75170;SHT31;63749;49.186;9.222;2023-11-22T12:10:23;5.56;68.43
75170;SHT31;63749;49.186;9.222;2023-11-22T12:12:49;5.50;67.99
75170;SHT31;63749;49.186;9.222;2023-11-22T12:15:15;5.29;68.18
75170;SHT31;63749;49.186;9.222;2023-11-22T12:17:40;5.47;69.03
75170;SHT31;63749;49.186;9.222;2023-11-22T12:20:11;5.43;67.94
75170;SHT31;63749;49.186;9.222;2023-11-22T12:22:37;5.40;69.04
75170;SHT31;63749;49.186;9.222;2023-11-22T12:25:03;5.39;68.90
75170;SHT31;63749;49.186;9.222;2023-11-22T12:27:29;5.20;68.87
75170;SHT31;63749;49.186;9.222;2023-11-22T12:29:54;5.22;68.84
75170;SHT31;63749;49.186;9.222;2023-11-22T12:32:24;5.35;69.22
75170;SHT31;63749;49.186;9.222;2023-11-22T12:34:50;5.47;69.98
75170;SHT31;63749;49.186;9.222;2023-11-22T12:37:22;5.35;67.84
75170;SHT31;63749;49.186;9.222;2023-11-22T12:39:49;5.12;68.62
75170;SHT31;63749;49.186;9.222;2023-11-22T12:42:17;5.12;68.75
75170;SHT31;63749;49.186;9.222;2023-11-22T12:44:51;5.12;69.20
75170;SHT31;63749;49.186;9.222;2023-11-22T12:47:32;5.12;68.64
75170;SHT31;63749;49.186;9.222;2023-11-22T12:50:02;5.12;69.81
75170;SHT31;63749;49.186;9.222;2023-11-22T12:52:29;5.04;69.35
75170;SHT31;63749;49.186;9.222;2023-11-22T12:54:55;5.05;70.12
75170;SHT31;63749;49.186;9.222;2023-11-22T12:57:20;5.22;69.36
75170;SHT31;63749;49.186;9.222;2023-11-22T12:59:49;5.23;70.67
75170;SHT31;63749;49.186;9.222;2023-11-22T13:02:14;5.15;69.63
75170;SHT31;63749;49.186;9.222;2023-11-22T13:04:40;5.18;70.04
75170;SHT31;63749;49.186;9.222;2023-11-22T13:07:05;5.26;69.95
75170;SHT31;63749;49.186;9.222;2023-11-22T13:09:31;5.29;70.51
75170;SHT31;63749;49.186;9.222;2023-11-22T13:11:59;5.16;70.80
75170;SHT31;63749;49.186;9.222;2023-11-22T13:14:24;5.15;69.33
75170;SHT31;63749;49.186;9.222;2023-11-22T13:16:51;4.95;69.60
75170;SHT31;63749;49.186;9.222;2023-11-22T13:19:17;4.88;70.15
75170;SHT31;63749;49.186;9.222;2023-11-22T13:21:42;4.84;70.50
75170;SHT31;63749;49.186;9.222;2023-11-22T13:24:09;4.86;70.23
75170;SHT31;63749;49.186;9.222;2023-11-22T13:26:36;4.93;71.03
75170;SHT31;63749;49.186;9.222;2023-11-22T13:29:01;4.85;70.64
75170;SHT31;63749;49.186;9.222;2023-11-22T13:31:28;4.86;70.30
75170;SHT31;63749;49.186;9.222;2023-11-22T13:33:53;4.95;73.30
75170;SHT31;63749;49.186;9.222;2023-11-22T13:36:19;4.91;73.81
75170;SHT31;63749;49.186;9.222;2023-11-22T13:38:44;5.08;75.92
75170;SHT31;63749;49.186;9.222;2023-11-22T13:41:09;5.19;74.48
75170;SHT31;63749;49.186;9.222;2023-11-22T13:43:35;5.13;72.98
75170;SHT31;63749;49.186;9.222;2023-11-22T13:46:00;5.26;72.20
75170;SHT31;63749;49.186;9.222;2023-11-22T13:48:26;5.12;71.99
75170;SHT31;63749;49.186;9.222;2023-11-22T13:50:51;5.09;71.97
75170;SHT31;63749;49.186;9.222;2023-11-22T13:53:17;5.20;70.51
75170;SHT31;63749;49.186;9.222;2023-11-22T13:55:47;5.50;76.10
75170;SHT31;63749;49.186;9.222;2023-11-22T13:58:12;5.26;71.58
75170;SHT31;63749;49.186;9.222;2023-11-22T14:00:38;5.61;74.03
75170;SHT31;63749;49.186;9.222;2023-11-22T14:03:04;5.39;70.78
75170;SHT31;63749;49.186;9.222;2023-11-22T14:05:37;5.79;71.64
75170;SHT31;63749;49.186;9.222;2023-11-22T14:08:04;5.84;70.41
75170;SHT31;63749;49.186;9.222;2023-11-22T14:10:29;5.54;69.99
75170;SHT31;63749;49.186;9.222;2023-11-22T14:12:54;5.48;71.71
75170;SHT31;63749;49.186;9.222;2023-11-22T14:15:25;5.22;69.79
75170;SHT31;63749;49.186;9.222;2023-11-22T14:17:50;4.92;70.26
75170;SHT31;63749;49.186;9.222;2023-11-22T14:20:17;4.81;70.18
75170;SHT31;63749;49.186;9.222;2023-11-22T14:22:43;4.69;70.21
75170;SHT31;63749;49.186;9.222;2023-11-22T14:25:11;4.71;71.06
75170;SHT31;63749;49.186;9.222;2023-11-22T14:27:39;4.64;71.10
75170;SHT31;63749;49.186;9.222;2023-11-22T14:30:08;4.55;71.66
75170;SHT31;63749;49.186;9.222;2023-11-22T14:32:35;4.50;72.15
75170;SHT31;63749;49.186;9.222;2023-11-22T14:35:04;4.41;72.48
75170;SHT31;63749;49.186;9.222;2023-11-22T14:37:30;4.34;72.55
75170;SHT31;63749;49.186;9.222;2023-11-22T14:39:59;4.29;72.24
75170;SHT31;63749;49.186;9.222;2023-11-22T14:42:24;4.33;72.39
75170;SHT31;63749;49.186;9.222;2023-11-22T14:44:52;4.20;71.29
75170;SHT31;63749;49.186;9.222;2023-11-22T14:47:18;4.17;71.97
75170;SHT31;63749;49.186;9.222;2023-11-22T14:49:49;4.14;72.58
75170;SHT31;63749;49.186;9.222;2023-11-22T14:52:15;4.16;72.61
75170;SHT31;63749;49.186;9.222;2023-11-22T14:54:45;4.14;71.70
75170;SHT31;63749;49.186;9.222;2023-11-22T14:57:11;4.10;72.53
75170;SHT31;63749;49.186;9.222;2023-11-22T14:59:38;4.10;73.08
75170;SHT31;63749;49.186;9.222;2023-11-22T15:02:03;4.00;72.31
75170;SHT31;63749;49.186;9.222;2023-11-22T15:04:34;3.93;72.05
75170;SHT31;63749;49.186;9.222;2023-11-22T15:07:01;3.86;71.76
75170;SHT31;63749;49.186;9.222;2023-11-22T15:09:26;3.90;71.92
75170;SHT31;63749;49.186;9.222;2023-11-22T15:11:52;3.92;72.02
75170;SHT31;63749;49.186;9.222;2023-11-22T15:14:17;3.86;72.32
75170;SHT31;63749;49.186;9.222;2023-11-22T15:16:42;3.75;73.02
75170;SHT31;63749;49.186;9.222;2023-11-22T15:19:08;3.74;73.26
75170;SHT31;63749;49.186;9.222;2023-11-22T15:21:35;3.81;74.25
75170;SHT31;63749;49.186;9.222;2023-11-22T15:24:00;3.79;73.73
75170;SHT31;63749;49.186;9.222;2023-11-22T15:26:26;3.82;75.12
75170;SHT31;63749;49.186;9.222;2023-11-22T15:28:52;3.85;74.05
75170;SHT31;63749;49.186;9.222;2023-11-22T15:31:18;3.76;73.69
75170;SHT31;63749;49.186;9.222;2023-11-22T15:33:44;3.78;73.89
75170;SHT31;63749;49.186;9.222;2023-11-22T15:36:10;3.76;74.70
75170;SHT31;63749;49.186;9.222;2023-11-22T15:38:35;3.69;74.58
75170;SHT31;63749;49.186;9.222;2023-11-22T15:41:01;3.75;73.61
75170;SHT31;63749;49.186;9.222;2023-11-22T15:43:28;3.71;74.35